DHECK VNLK-ZZZ
Flight info
| Callsign | DHECK |
|---|---|
| Flight time | N/A |
| Altitude | 12000 |
| Route | DCT |
| Aircraft | UH1/L-S/L |
Departure
| Time | 2026-02-05 16:46 |
|---|---|
| Airport | Tenzing-Hillary Airport (VNLK) |
Arrival
| Time | N/A |
|---|---|
| Airport | ZZZ |
| Time | Latitude | Longitude | Altitude | Speed | Heading |
|---|---|---|---|---|---|
| 2026-02-05 16:35 | 27.68770 | 86.73188 | 9406 ft | 0 kts | 27° |
| 2026-02-05 16:41 | 27.68773 | 86.73189 | 9406 ft | 0 kts | 291° |
| 2026-02-05 16:44 | 27.68783 | 86.73158 | 9435 ft | 17 kts | 278° |
| 2026-02-05 16:45 | 27.68628 | 86.72322 | 9438 ft | 71 kts | 313° |
| 2026-02-05 16:45 | 27.69499 | 86.72021 | 9771 ft | 67 kts | 326° |
| 2026-02-05 16:46 | 27.70348 | 86.71790 | 10200 ft | 60 kts | 356° |
| 2026-02-05 16:46 | 27.70781 | 86.71782 | 10430 ft | 63 kts | 357° |
| 2026-02-05 16:47 | 27.72218 | 86.71812 | 10973 ft | 63 kts | 357° |
| 2026-02-05 16:47 | 27.73134 | 86.71957 | 11364 ft | 66 kts | 2° |
| 2026-02-05 16:48 | 27.74054 | 86.72143 | 11642 ft | 72 kts | 8° |
| 2026-02-05 16:48 | 27.75062 | 86.72280 | 11888 ft | 75 kts | 353° |
| 2026-02-05 16:49 | 27.76206 | 86.72302 | 12000 ft | 88 kts | 354° |
| 2026-02-05 16:49 | 27.77459 | 86.72303 | 12120 ft | 91 kts | 354° |
| 2026-02-05 16:50 | 27.78718 | 86.72374 | 12277 ft | 88 kts | 350° |
| 2026-02-05 16:50 | 27.79315 | 86.72390 | 12404 ft | 82 kts | 360° |
| 2026-02-05 16:51 | 27.80694 | 86.73533 | 12739 ft | 77 kts | 42° |
| 2026-02-05 16:51 | 27.81465 | 86.74409 | 13043 ft | 76 kts | 36° |
| 2026-02-05 16:52 | 27.82254 | 86.75274 | 13401 ft | 77 kts | 47° |
| 2026-02-05 16:52 | 27.82951 | 86.76180 | 13719 ft | 77 kts | 43° |
| 2026-02-05 16:53 | 27.83801 | 86.77030 | 13920 ft | 80 kts | 39° |
| 2026-02-05 16:53 | 27.84334 | 86.78107 | 14196 ft | 76 kts | 56° |
| 2026-02-05 16:54 | 27.84933 | 86.79136 | 14405 ft | 79 kts | 44° |
| 2026-02-05 16:54 | 27.85728 | 86.80005 | 14637 ft | 81 kts | 40° |
| 2026-02-05 16:55 | 27.86500 | 86.80881 | 14888 ft | 79 kts | 33° |
| 2026-02-05 16:55 | 27.87361 | 86.81593 | 15177 ft | 74 kts | 29° |
| 2026-02-05 16:56 | 27.88329 | 86.82265 | 15155 ft | 94 kts | 21° |
| 2026-02-05 16:56 | 27.89469 | 86.82516 | 15182 ft | 78 kts | 333° |
| 2026-02-05 16:57 | 27.90298 | 86.81517 | 14883 ft | 101 kts | 298° |
| 2026-02-05 16:57 | 27.91077 | 86.80550 | 14811 ft | 62 kts | 331° |
| 2026-02-05 16:58 | 27.91723 | 86.80451 | 14648 ft | 26 kts | 21° |
| 2026-02-05 16:58 | 27.91769 | 86.80475 | 14659 ft | 0 kts | 35° |
| 2026-02-05 16:59 | 27.91763 | 86.80467 | 14654 ft | 0 kts | 12° |
| 2026-02-05 17:00 | 27.91750 | 86.80465 | 14648 ft | 4 kts | 354° |
| 2026-02-05 17:00 | 27.91542 | 86.80551 | 14527 ft | 24 kts | 160° |
| 2026-02-05 17:01 | 27.91198 | 86.80578 | 14400 ft | 29 kts | 205° |
| 2026-02-05 17:01 | 27.91145 | 86.80376 | 14354 ft | 0 kts | 323° |
| 2026-02-05 17:03 | 27.90972 | 86.80635 | 14298 ft | 24 kts | 144° |
| 2026-02-05 17:03 | 27.90870 | 86.80733 | 14239 ft | 0 kts | 140° |
| 2026-02-05 17:04 | 27.90544 | 86.80980 | 14367 ft | 45 kts | 112° |
| 2026-02-05 17:05 | 27.90208 | 86.81594 | 14782 ft | 43 kts | 145° |
| 2026-02-05 17:05 | 27.89859 | 86.81589 | 15159 ft | 20 kts | 301° |
| 2026-02-05 17:06 | 27.90280 | 86.81152 | 15123 ft | 50 kts | 324° |
| 2026-02-05 17:06 | 27.90569 | 86.80892 | 15176 ft | 55 kts | 317° |
| 2026-02-05 17:06 | 27.90859 | 86.80572 | 15076 ft | 62 kts | 320° |
| 2026-02-05 17:07 | 27.92227 | 86.80294 | 15228 ft | 38 kts | 51° |
| 2026-02-05 17:08 | 27.92524 | 86.80745 | 15465 ft | 31 kts | 56° |
| 2026-02-05 17:08 | 27.92831 | 86.81091 | 15802 ft | 32 kts | 30° |
| 2026-02-05 17:09 | 27.93144 | 86.81255 | 16018 ft | 18 kts | 22° |
| 2026-02-05 17:09 | 27.93255 | 86.81431 | 15946 ft | 17 kts | 222° |
| 2026-02-05 17:10 | 27.92729 | 86.81090 | 16064 ft | 56 kts | 217° |
| 2026-02-05 17:10 | 27.92486 | 86.80775 | 16246 ft | 55 kts | 238° |
| 2026-02-05 17:11 | 27.92318 | 86.79412 | 16408 ft | 57 kts | 296° |
| 2026-02-05 17:11 | 27.92901 | 86.79312 | 16644 ft | 70 kts | 55° |
| 2026-02-05 17:12 | 27.93574 | 86.80151 | 16680 ft | 73 kts | 43° |
| 2026-02-05 17:12 | 27.94438 | 86.81017 | 16744 ft | 84 kts | 30° |
| 2026-02-05 17:12 | 27.94932 | 86.81389 | 16826 ft | 85 kts | 30° |
| 2026-02-05 17:13 | 27.96488 | 86.82474 | 16941 ft | 91 kts | 29° |
| 2026-02-05 17:13 | 27.97018 | 86.82868 | 16973 ft | 90 kts | 27° |
| 2026-02-05 17:14 | 27.98046 | 86.83443 | 17205 ft | 80 kts | 41° |
| 2026-02-05 17:15 | 27.98920 | 86.84608 | 17175 ft | 28 kts | 40° |
| 2026-02-05 17:15 | 27.99079 | 86.84776 | 17134 ft | 11 kts | 18° |
| 2026-02-05 17:16 | 27.99131 | 86.84807 | 17160 ft | 0 kts | 18° |
| 2026-02-05 17:18 | 27.99186 | 86.84823 | 17172 ft | 15 kts | 277° |
| 2026-02-05 17:19 | 27.98435 | 86.83960 | 17131 ft | 70 kts | 229° |
| 2026-02-05 17:19 | 27.97717 | 86.83216 | 17040 ft | 67 kts | 240° |
| 2026-02-05 17:20 | 27.97218 | 86.82372 | 17094 ft | 67 kts | 217° |
| 2026-02-05 17:20 | 27.96181 | 86.82008 | 16921 ft | 89 kts | 188° |
| 2026-02-05 17:21 | 27.94855 | 86.81874 | 16582 ft | 99 kts | 187° |
| 2026-02-05 17:21 | 27.94211 | 86.81621 | 16475 ft | 96 kts | 200° |
| 2026-02-05 17:22 | 27.92297 | 86.80906 | 16006 ft | 97 kts | 195° |
| 2026-02-05 17:22 | 27.91625 | 86.80904 | 15855 ft | 105 kts | 163° |
| 2026-02-05 17:23 | 27.89399 | 86.81995 | 14870 ft | 107 kts | 156° |
| 2026-02-05 17:23 | 27.88020 | 86.81545 | 14350 ft | 108 kts | 201° |
| 2026-02-05 17:24 | 27.86822 | 86.80698 | 13976 ft | 99 kts | 225° |
| 2026-02-05 17:24 | 27.85891 | 86.79461 | 13597 ft | 105 kts | 226° |
| 2026-02-05 17:25 | 27.85025 | 86.78159 | 13381 ft | 101 kts | 225° |
| 2026-02-05 17:25 | 27.84558 | 86.77520 | 13191 ft | 107 kts | 223° |
| 2026-02-05 17:25 | 27.83677 | 86.76224 | 13102 ft | 100 kts | 227° |
| 2026-02-05 17:26 | 27.82671 | 86.75003 | 13120 ft | 111 kts | 214° |
| 2026-02-05 17:27 | 27.80849 | 86.73281 | 12922 ft | 120 kts | 212° |
| 2026-02-05 17:27 | 27.79339 | 86.72406 | 12614 ft | 128 kts | 189° |
| 2026-02-05 17:28 | 27.77627 | 86.71877 | 12285 ft | 127 kts | 197° |
| 2026-02-05 17:28 | 27.77035 | 86.71579 | 12182 ft | 120 kts | 199° |
| 2026-02-05 17:29 | 27.75696 | 86.71057 | 11869 ft | 123 kts | 190° |
| 2026-02-05 17:30 | 27.73887 | 86.70692 | 11086 ft | 138 kts | 176° |
| 2026-02-05 17:31 | 27.71273 | 86.70444 | 9822 ft | 100 kts | 173° |
| 2026-02-05 17:31 | 27.70162 | 86.70730 | 9204 ft | 67 kts | 150° |
| 2026-02-05 17:32 | 27.69410 | 86.70883 | 8823 ft | 47 kts | 171° |
| 2026-02-05 17:32 | 27.69023 | 86.71095 | 8755 ft | 17 kts | 156° |
| 2026-02-05 17:32 | 27.68925 | 86.71174 | 8812 ft | 25 kts | 172° |
| 2026-02-05 17:33 | 27.68595 | 86.71539 | 9116 ft | 38 kts | 124° |
| 2026-02-05 17:33 | 27.68428 | 86.72058 | 9257 ft | 39 kts | 91° |
| 2026-02-05 17:34 | 27.68523 | 86.72628 | 9335 ft | 35 kts | 69° |
| 2026-02-05 17:35 | 27.68722 | 86.73040 | 9413 ft | 19 kts | 61° |
| 2026-02-05 17:35 | 27.68766 | 86.73174 | 9410 ft | 6 kts | 86° |